Time;durP1;ratioP1;P1;durP2;ratioP2;P2;SDS_P1;SDS_P2;PMS_P1;PMS_P2;Temp;Humidity;BMP_temperature;BMP_pressure;BME280_temperature;BME280_humidity;BME280_pressure;Samples;Min_cycle;Max_cycle;Signal;HPM_P1;HPM_P2
2023/07/08 00:00:39;;;;;;;;;6.00;6.00;;;;;19.44;48.51;100045.75;5019126;28;8857;-58
2023/07/08 00:03:06;;;;;;;;;7.00;7.00;;;;;19.52;48.33;100041.16;5013266;28;8844;-59
2023/07/08 00:05:34;;;;;;;;;6.20;5.20;;;;;19.60;48.39;100046.53;5014582;28;8810;-59
2023/07/08 00:08:02;;;;;;;;;7.60;6.80;;;;;19.67;47.84;100039.41;5013343;28;8838;-59
2023/07/08 00:10:30;;;;;;;;;6.20;6.20;;;;;19.72;47.93;100038.88;5018764;28;8970;-58
2023/07/08 00:12:58;;;;;;;;;4.60;4.60;;;;;19.68;48.10;100032.97;5032508;28;8823;-60
2023/07/08 00:15:26;;;;;;;;;7.80;7.00;;;;;19.61;48.53;100040.09;5031942;28;8828;-58
2023/07/08 00:17:54;;;;;;;;;5.20;5.20;;;;;19.54;48.45;100038.28;5032460;28;8832;-58
2023/07/08 00:20:22;;;;;;;;;7.00;5.40;;;;;19.47;48.52;100030.03;5024971;28;8857;-58
2023/07/08 00:22:50;;;;;;;;;6.80;6.80;;;;;19.41;48.30;100027.22;5022607;28;8844;-58
2023/07/08 00:25:19;;;;;;;;;6.20;6.20;;;;;19.37;48.57;100032.13;5032673;28;8820;-58
2023/07/08 00:27:47;;;;;;;;;7.00;7.00;;;;;19.33;48.93;100032.63;5031820;28;8848;-60
2023/07/08 00:30:17;;;;;;;;;10.00;8.20;;;;;19.29;48.92;100029.47;5020469;28;8810;-58
2023/07/08 00:32:45;;;;;;;;;4.00;4.00;;;;;19.28;48.62;100030.44;5023296;28;8916;-58
2023/07/08 00:35:13;;;;;;;;;8.60;6.40;;;;;19.26;49.42;100035.19;5030964;28;8844;-57
2023/07/08 00:37:40;;;;;;;;;6.20;5.20;;;;;19.25;49.41;100022.72;5031136;28;8955;-60
2023/07/08 00:40:08;;;;;;;;;5.00;4.60;;;;;19.23;49.26;100022.06;5029463;28;8832;-58
2023/07/08 00:42:36;;;;;;;;;9.20;8.60;;;;;19.22;49.16;100023.06;5031706;28;8820;-59
2023/07/08 00:45:04;;;;;;;;;6.20;6.00;;;;;19.21;48.99;100018.66;5030451;28;8828;-60
2023/07/08 00:47:31;;;;;;;;;8.00;5.60;;;;;19.20;48.83;100024.25;5030998;28;8832;-60
2023/07/08 00:49:59;;;;;;;;;5.40;5.40;;;;;19.17;48.95;100017.31;5032133;28;8909;-61
2023/07/08 00:52:27;;;;;;;;;7.00;7.00;;;;;19.15;49.17;100019.34;5032572;28;9581;-58
2023/07/08 00:54:55;;;;;;;;;7.00;7.00;;;;;19.15;49.28;100016.66;5019365;28;8901;-60
2023/07/08 00:57:23;;;;;;;;;6.00;6.00;;;;;19.13;49.36;100018.66;5031472;28;8828;-58
2023/07/08 00:59:50;;;;;;;;;6.60;6.20;;;;;19.11;49.63;100028.81;5015348;28;8834;-58
2023/07/08 01:02:18;;;;;;;;;3.00;3.00;;;;;19.08;49.13;100017.50;5011713;28;8874;-58
2023/07/08 01:04:46;;;;;;;;;4.60;4.60;;;;;19.04;49.39;100019.72;5012889;28;8845;-59
2023/07/08 01:07:21;;;;;;;;;6.00;6.00;;;;;18.99;49.49;100013.16;5027151;28;8938;-58
2023/07/08 01:09:49;;;;;;;;;6.80;6.40;;;;;18.94;49.33;100004.72;5013521;28;8854;-58
2023/07/08 01:12:16;;;;;;;;;6.40;6.00;;;;;18.88;49.41;100006.28;5028368;28;8820;-58
2023/07/08 01:14:44;;;;;;;;;6.00;6.00;;;;;18.83;50.06;100003.25;5033362;28;8960;-58
2023/07/08 01:17:13;;;;;;;;;6.40;5.40;;;;;18.77;49.88;100006.66;5023715;28;8812;-58
2023/07/08 01:19:42;;;;;;;;;6.40;5.00;;;;;18.72;49.75;100006.31;5034973;28;8860;-58
2023/07/08 01:22:09;;;;;;;;;7.00;7.00;;;;;18.66;50.10;100001.59;5035068;28;8846;-58
2023/07/08 01:24:38;;;;;;;;;6.20;6.20;;;;;18.62;50.36;99996.72;5035248;28;8858;-58
2023/07/08 01:27:05;;;;;;;;;7.00;7.00;;;;;18.56;50.57;100000.94;5034509;28;8840;-58
2023/07/08 01:29:33;;;;;;;;;7.00;7.00;;;;;18.51;50.40;99997.91;5035190;28;9524;-58
2023/07/08 01:32:02;;;;;;;;;6.40;6.40;;;;;18.43;50.11;99987.16;5035279;28;8846;-58
2023/07/08 01:34:30;;;;;;;;;11.40;7.80;;;;;18.40;50.78;99983.94;5034797;28;8832;-58
2023/07/08 01:36:58;;;;;;;;;9.00;9.00;;;;;18.36;50.59;99988.00;5034512;28;8838;-58
2023/07/08 01:39:26;;;;;;;;;3.20;3.20;;;;;18.30;50.75;99978.72;5035312;28;8854;-58
2023/07/08 01:41:54;;;;;;;;;5.20;5.20;;;;;18.27;51.12;99978.19;5034481;28;8967;-58
2023/07/08 01:44:22;;;;;;;;;7.00;6.40;;;;;18.23;51.28;99979.56;5034607;28;8839;-58
2023/07/08 01:46:50;;;;;;;;;7.00;7.00;;;;;18.19;50.83;99979.03;5035395;28;8824;-58
2023/07/08 01:49:17;;;;;;;;;5.60;4.40;;;;;18.15;50.92;99983.06;5035110;28;8850;-58
2023/07/08 01:51:45;;;;;;;;;7.00;6.80;;;;;18.11;51.03;99979.06;5035426;28;8854;-58
2023/07/08 01:54:12;;;;;;;;;6.20;6.20;;;;;18.08;51.36;99978.53;5034811;28;8966;-58
2023/07/08 01:56:40;;;;;;;;;6.40;6.00;;;;;18.03;51.06;99981.75;5025479;28;8996;-58
2023/07/08 01:59:09;;;;;;;;;6.20;6.00;;;;;17.98;51.09;99978.69;5014036;28;8844;-58
2023/07/08 02:01:36;;;;;;;;;9.40;8.20;;;;;17.96;51.52;99963.72;5014860;28;9472;-58
2023/07/08 02:04:04;;;;;;;;;7.00;6.60;;;;;17.92;51.21;99955.13;5016071;28;8829;-59
2023/07/08 02:06:32;;;;;;;;;3.60;3.60;;;;;17.88;51.48;99961.88;5014480;28;8849;-57
2023/07/08 02:09:00;;;;;;;;;7.00;7.00;;;;;17.85;51.67;99953.28;5015022;28;8868;-58
2023/07/08 02:11:27;;;;;;;;;6.00;6.00;;;;;17.82;51.84;99957.16;5015195;28;8826;-58
2023/07/08 02:13:55;;;;;;;;;4.00;4.00;;;;;17.78;51.54;99960.34;5015456;28;8826;-58
2023/07/08 02:16:23;;;;;;;;;6.40;6.40;;;;;17.76;51.63;99959.69;5014277;28;8850;-58
2023/07/08 02:18:50;;;;;;;;;9.00;6.60;;;;;17.72;51.44;99963.69;5017337;28;8861;-58
2023/07/08 02:21:19;;;;;;;;;6.00;4.80;;;;;17.70;51.80;99965.72;5034336;28;8868;-59
2023/07/08 02:23:46;;;;;;;;;8.20;6.80;;;;;17.68;51.72;99962.38;5033667;28;8843;-58
2023/07/08 02:26:14;;;;;;;;;7.00;7.00;;;;;17.65;51.60;99962.69;5034288;28;8835;-58
2023/07/08 02:28:42;;;;;;;;;8.00;6.75;;;;;17.61;52.01;99959.47;5033183;28;8859;-57
2023/07/08 02:31:09;;;;;;;;;6.80;6.00;;;;;17.58;52.20;99951.75;5033966;28;8863;-59
2023/07/08 02:33:40;;;;;;;;;6.50;6.50;;;;;17.55;51.55;99954.75;5014620;28;8816;-58
2023/07/08 02:36:08;;;;;;;;;7.00;7.00;;;;;17.54;52.28;99949.53;5033429;28;8820;-59
2023/07/08 02:38:38;;;;;;;;;6.60;6.00;;;;;17.52;51.84;99947.00;5033182;28;8816;-58
2023/07/08 02:41:08;;;;;;;;;6.20;6.20;;;;;17.51;52.31;99953.41;5033555;28;8843;-58
2023/07/08 02:43:36;;;;;;;;;7.50;7.50;;;;;17.48;52.04;99948.34;5031750;28;8836;-58
2023/07/08 02:46:08;;;;;;;;;8.50;8.00;;;;;17.45;52.35;99953.25;5034164;28;8848;-58
2023/07/08 02:48:39;;;;;;;;;9.00;9.00;;;;;17.41;52.02;99950.03;5016638;28;8831;-58
2023/07/08 02:51:10;;;;;;;;;6.50;6.50;;;;;17.39;52.57;99957.41;5012703;28;8847;-58
2023/07/08 02:53:38;;;;;;;;;8.50;8.00;;;;;17.36;52.16;99948.78;5020866;28;8820;-58
2023/07/08 02:56:07;;;;;;;;;6.00;6.00;;;;;17.34;52.43;99956.19;5034044;28;8845;-58
2023/07/08 02:58:35;;;;;;;;;9.00;9.00;;;;;17.31;52.62;99951.97;5030487;28;8821;-58
2023/07/08 03:01:03;;;;;;;;;8.50;7.00;;;;;17.27;52.70;99950.63;5014631;28;8857;-58
2023/07/08 03:03:31;;;;;;;;;9.00;7.00;;;;;17.22;52.41;99952.97;5020878;28;8840;-61
2023/07/08 03:05:59;;;;;;;;;7.50;7.50;;;;;17.18;52.90;99957.00;5032979;28;8905;-59
2023/07/08 03:08:28;;;;;;;;;4.50;4.50;;;;;17.17;52.39;99954.47;5029692;28;8813;-59
2023/07/08 03:10:56;;;;;;;;;8.00;8.00;;;;;17.14;52.62;99950.25;5013262;28;8897;-58
2023/07/08 03:13:25;;;;;;;;;9.75;9.00;;;;;17.11;52.80;99953.28;5011479;28;8831;-59
2023/07/08 03:15:54;;;;;;;;;9.00;9.00;;;;;17.08;52.73;99956.28;5010794;28;8862;-58
2023/07/08 03:18:23;;;;;;;;;13.00;9.25;;;;;17.05;52.81;99950.38;5013551;28;8831;-58
2023/07/08 03:20:51;;;;;;;;;7.50;6.75;;;;;17.03;52.67;99952.41;5031759;28;8833;-58
2023/07/08 03:23:19;;;;;;;;;6.67;6.67;;;;;17.01;52.75;99951.72;5031797;28;8890;-58
2023/07/08 03:25:47;;;;;;;;;7.25;7.00;;;;;16.99;52.91;99956.41;5031070;28;8863;-58
2023/07/08 03:28:15;;;;;;;;;6.50;6.00;;;;;16.95;53.31;99950.50;5032193;28;8851;-59
2023/07/08 03:30:43;;;;;;;;;7.00;7.00;;;;;16.93;53.32;99951.69;5031908;28;8833;-59
2023/07/08 03:33:11;;;;;;;;;8.00;8.00;;;;;16.90;52.93;99941.22;5032099;28;8849;-59
2023/07/08 03:35:39;;;;;;;;;6.25;6.25;;;;;16.88;53.00;99944.09;5032016;28;9625;-58
2023/07/08 03:38:06;;;;;;;;;6.75;6.75;;;;;16.88;53.09;99941.41;5032755;28;8859;-58
2023/07/08 03:40:34;;;;;;;;;6.00;4.00;;;;;16.89;52.95;99948.47;5033079;28;8836;-59
2023/07/08 03:43:02;;;;;;;;;7.00;7.00;;;;;16.89;53.19;99948.47;5033400;28;8837;-59
2023/07/08 03:45:30;;;;;;;;;6.75;5.50;;;;;16.91;53.25;99951.00;5032963;28;8837;-60
2023/07/08 03:47:58;;;;;;;;;7.50;7.00;;;;;16.94;53.11;99956.88;5032458;28;8866;-58
2023/07/08 03:50:25;;;;;;;;;6.40;6.40;;;;;16.94;53.30;99951.50;5032772;28;8839;-60
2023/07/08 03:52:53;;;;;;;;;6.25;6.25;;;;;16.94;53.59;99959.56;5032582;28;8821;-58
2023/07/08 03:55:20;;;;;;;;;8.50;8.50;;;;;16.91;53.39;99959.91;5032275;28;8890;-58
2023/07/08 03:57:48;;;;;;;;;7.50;7.50;;;;;16.87;53.53;99963.91;5032556;28;9498;-58
2023/07/08 04:00:16;;;;;;;;;8.00;7.50;;;;;16.84;53.32;99958.00;5032183;28;8840;-59
2023/07/08 04:02:44;;;;;;;;;10.00;9.00;;;;;16.79;53.48;99966.56;5032056;28;8954;-58
2023/07/08 04:05:11;;;;;;;;;12.00;10.00;;;;;16.77;53.12;99970.41;5033418;28;8820;-58
2023/07/08 04:07:40;;;;;;;;;6.75;6.50;;;;;16.76;53.29;99969.59;5015836;28;8849;-58
2023/07/08 04:10:08;;;;;;;;;6.00;6.00;;;;;16.77;53.78;99965.91;5031679;28;8812;-59
2023/07/08 04:12:35;;;;;;;;;9.75;7.00;;;;;16.82;53.20;99968.97;5033228;28;8832;-59
2023/07/08 04:15:03;;;;;;;;;9.00;9.00;;;;;16.89;53.57;99970.00;5032917;28;8804;-58
2023/07/08 04:17:31;;;;;;;;;11.00;9.25;;;;;16.96;52.82;99968.34;5032537;28;8850;-59
2023/07/08 04:20:06;;;;;;;;;10.00;9.50;;;;;17.02;52.98;99962.31;5033480;28;8947;-58
2023/07/08 04:22:33;;;;;;;;;8.00;5.50;;;;;17.08;53.33;99961.66;5033037;28;8838;-59
2023/07/08 04:25:05;;;;;;;;;6.25;6.00;;;;;17.11;52.63;99964.03;5013942;28;9506;-58
2023/07/08 04:27:33;;;;;;;;;7.50;7.00;;;;;17.14;53.28;99963.72;5013379;28;8854;-58
2023/07/08 04:30:01;;;;;;;;;8.50;7.00;;;;;17.17;52.82;99974.13;5013314;28;8840;-59
2023/07/08 04:32:28;;;;;;;;;7.50;7.50;;;;;17.18;53.07;99973.16;5013453;28;8846;-60
2023/07/08 04:34:56;;;;;;;;;10.50;9.00;;;;;17.19;53.29;99969.44;5013177;28;8818;-60
2023/07/08 04:37:24;;;;;;;;;8.50;6.50;;;;;17.21;52.99;99970.13;5013259;28;8857;-60
2023/07/08 04:39:52;;;;;;;;;9.00;9.00;;;;;17.23;53.10;99970.78;5021628;28;8831;-58
2023/07/08 04:42:19;;;;;;;;;9.00;7.00;;;;;17.25;53.03;99976.84;5023802;28;8816;-58
2023/07/08 04:44:49;;;;;;;;;9.00;7.40;;;;;17.28;52.83;99973.84;5031359;28;9572;-58
2023/07/08 04:47:20;;;;;;;;;7.00;7.00;;;;;17.31;52.76;99978.91;5022493;28;8820;-59
2023/07/08 04:49:47;;;;;;;;;8.25;8.25;;;;;17.33;52.67;99971.50;5016505;28;8838;-58
2023/07/08 04:52:15;;;;;;;;;6.80;6.80;;;;;17.37;52.96;99977.41;5017463;28;8902;-59
2023/07/08 04:54:42;;;;;;;;;9.00;9.00;;;;;17.40;53.07;99980.63;5017154;28;8834;-57
2023/07/08 04:57:10;;;;;;;;;6.80;6.40;;;;;17.43;53.18;99974.06;5022144;28;8820;-59
2023/07/08 04:59:38;;;;;;;;;4.20;3.80;;;;;17.46;52.55;99977.28;5036123;28;8824;-59
2023/07/08 05:02:06;;;;;;;;;6.80;6.40;;;;;17.48;52.53;99977.94;5035663;28;8823;-60
2023/07/08 05:04:33;;;;;;;;;7.00;6.80;;;;;17.52;52.86;99979.31;5036265;28;8844;-58
2023/07/08 05:07:01;;;;;;;;;8.60;8.20;;;;;17.56;52.40;99978.00;5032127;28;8847;-61
2023/07/08 05:09:31;;;;;;;;;7.80;7.80;;;;;17.60;52.91;99973.94;5028337;28;9587;-58
2023/07/08 05:11:59;;;;;;;;;7.80;7.80;;;;;17.64;52.41;99980.72;5031656;28;8816;-58
2023/07/08 05:14:27;;;;;;;;;6.60;6.40;;;;;17.68;52.67;99973.13;5015680;28;8822;-59
2023/07/08 05:16:54;;;;;;;;;7.40;7.40;;;;;17.72;52.67;99978.03;5015766;28;8821;-58
2023/07/08 05:19:23;;;;;;;;;6.00;6.00;;;;;17.78;52.76;99974.63;5029417;28;8852;-58
2023/07/08 05:21:50;;;;;;;;;9.40;9.00;;;;;17.85;52.93;99972.97;5035429;28;8836;-59
2023/07/08 05:24:18;;;;;;;;;7.00;7.00;;;;;17.94;51.92;99974.69;5034994;28;8840;-57
2023/07/08 05:26:46;;;;;;;;;9.20;9.20;;;;;18.06;52.15;99970.63;5035494;28;8842;-58
2023/07/08 05:29:13;;;;;;;;;8.20;8.20;;;;;18.21;52.14;99968.09;5035547;28;8954;-58
2023/07/08 05:31:41;;;;;;;;;9.80;9.80;;;;;18.37;51.68;99973.50;5035618;28;8874;-59
2023/07/08 05:34:14;;;;;;;;;7.40;7.40;;;;;18.52;51.65;99969.94;5035438;28;8835;-58
2023/07/08 05:36:42;;;;;;;;;10.00;10.00;;;;;18.68;51.46;99966.38;5035718;28;8828;-58
2023/07/08 05:39:10;;;;;;;;;6.20;6.20;;;;;18.86;51.32;99965.13;5035227;28;8878;-59
2023/07/08 05:41:38;;;;;;;;;8.40;8.00;;;;;19.02;50.39;99961.50;5035323;28;8974;-58
2023/07/08 05:44:05;;;;;;;;;10.00;9.20;;;;;19.18;50.58;99967.69;5035196;28;8828;-59
2023/07/08 05:46:33;;;;;;;;;7.80;7.00;;;;;19.36;50.27;99962.06;5035172;28;8862;-59
2023/07/08 05:49:01;;;;;;;;;9.40;8.60;;;;;19.54;49.58;99955.38;5035380;28;8834;-59
2023/07/08 05:51:30;;;;;;;;;10.00;10.00;;;;;19.76;49.21;99959.94;5035148;28;8925;-58
2023/07/08 05:54:00;;;;;;;;;8.80;7.20;;;;;19.96;49.05;99955.72;5041751;28;8828;-59
2023/07/08 05:56:30;;;;;;;;;12.60;12.20;;;;;20.14;48.76;99955.44;5034920;28;8835;-58
2023/07/08 05:58:58;;;;;;;;;10.00;10.00;;;;;20.33;48.67;99955.75;5033602;28;8926;-58
2023/07/08 06:01:26;;;;;;;;;7.80;7.00;;;;;20.51;48.81;99959.00;5034662;28;8840;-58
2023/07/08 06:03:57;;;;;;;;;7.00;5.80;;;;;20.66;48.39;99959.00;5034766;28;8832;-59
2023/07/08 06:06:25;;;;;;;;;7.00;5.40;;;;;20.81;48.20;99963.41;5034795;28;8917;-58
2023/07/08 06:08:53;;;;;;;;;5.00;5.00;;;;;20.95;47.86;99965.28;5034664;28;8858;-59
2023/07/08 06:11:21;;;;;;;;;6.60;6.60;;;;;21.10;47.71;99958.00;5034735;28;8844;-58
2023/07/08 06:13:49;;;;;;;;;8.80;8.00;;;;;21.25;47.73;99959.66;5034890;28;9539;-59
2023/07/08 06:16:17;;;;;;;;;8.00;8.00;;;;;21.41;47.13;99956.72;5034846;28;8840;-58
2023/07/08 06:19:05;;;;;;;;;9.60;7.80;;;;;21.59;47.36;99951.72;5034773;28;8856;-59
2023/07/08 06:21:33;;;;;;;;;7.20;7.20;;;;;21.74;46.96;99954.41;5033755;28;8872;-58
2023/07/08 06:24:01;;;;;;;;;7.60;7.60;;;;;21.86;46.59;99944.72;5033337;28;8852;-58
2023/07/08 06:26:29;;;;;;;;;7.00;7.00;;;;;21.99;46.66;99955.69;5033664;28;8832;-59
2023/07/08 06:28:56;;;;;;;;;8.00;7.80;;;;;22.14;46.86;99948.31;5033574;28;8835;-59
2023/07/08 06:31:24;;;;;;;;;11.00;9.00;;;;;22.30;46.38;99946.16;5033722;28;9536;-58
2023/07/08 06:33:52;;;;;;;;;9.00;8.00;;;;;22.47;46.36;99938.59;5033759;28;8847;-60
2023/07/08 06:36:20;;;;;;;;;10.20;9.00;;;;;22.62;45.56;99942.06;5034663;28;9621;-59
2023/07/08 06:38:47;;;;;;;;;10.80;10.00;;;;;22.79;45.74;99944.25;5034801;28;8839;-60
2023/07/08 06:41:15;;;;;;;;;7.60;6.00;;;;;22.92;45.67;99954.38;5034084;28;8927;-60
2023/07/08 06:43:43;;;;;;;;;6.80;6.80;;;;;23.09;45.69;99944.84;5034433;28;8847;-59
2023/07/08 06:46:11;;;;;;;;;8.80;8.80;;;;;23.23;45.38;99952.03;5034410;28;8950;-59
2023/07/08 06:48:39;;;;;;;;;9.00;9.00;;;;;23.37;45.66;99942.91;5033772;28;8912;-58
2023/07/08 06:51:06;;;;;;;;;9.20;8.00;;;;;23.53;45.30;99948.78;5034560;28;8828;-58
2023/07/08 06:53:34;;;;;;;;;8.60;7.40;;;;;23.67;44.84;99945.06;5026461;28;8857;-59
2023/07/08 06:56:02;;;;;;;;;9.20;8.40;;;;;23.81;45.17;99948.69;5014307;28;8834;-59
2023/07/08 06:58:30;;;;;;;;;7.80;6.40;;;;;23.94;44.47;99940.56;5017338;28;8822;-59
2023/07/08 07:00:58;;;;;;;;;6.00;6.00;;;;;24.09;44.59;99947.50;5013976;28;8810;-59
2023/07/08 07:03:26;;;;;;;;;8.80;8.40;;;;;24.23;44.65;99940.16;5013273;28;8818;-60
2023/07/08 07:05:54;;;;;;;;;9.00;8.60;;;;;24.37;44.68;99945.41;5014960;28;9531;-58
2023/07/08 07:08:21;;;;;;;;;9.20;8.20;;;;;24.51;43.99;99943.50;5024886;28;8818;-59
2023/07/08 07:10:49;;;;;;;;;7.00;6.80;;;;;24.64;44.22;99943.53;5031852;28;8835;-60
2023/07/08 07:13:17;;;;;;;;;6.20;5.40;;;;;24.79;44.29;99941.41;5033162;28;8820;-59
2023/07/08 07:15:45;;;;;;;;;9.00;7.80;;;;;24.93;44.30;99945.75;5033113;28;8886;-59
2023/07/08 07:18:15;;;;;;;;;6.60;6.60;;;;;25.05;43.67;99949.50;5025507;28;8992;-59
2023/07/08 07:20:43;;;;;;;;;9.20;9.20;;;;;25.16;43.69;99937.91;5028898;28;8946;-59
2023/07/08 07:23:10;;;;;;;;;9.40;8.80;;;;;25.29;43.58;99949.66;5033512;28;8846;-59
2023/07/08 07:25:38;;;;;;;;;11.60;11.60;;;;;25.44;43.12;99941.19;5033590;28;8844;-59
2023/07/08 07:28:06;;;;;;;;;11.00;9.00;;;;;25.57;43.35;99941.13;5033675;28;8890;-59
2023/07/08 07:30:34;;;;;;;;;9.40;9.40;;;;;25.73;43.59;99936.84;5033700;28;8843;-59
2023/07/08 07:33:02;;;;;;;;;9.80;8.40;;;;;25.90;43.08;99937.19;5033299;28;8828;-59
2023/07/08 07:35:29;;;;;;;;;8.20;7.00;;;;;26.06;42.68;99937.50;5032144;28;8836;-59
2023/07/08 07:37:58;;;;;;;;;8.80;7.00;;;;;26.24;43.00;99940.28;5032293;28;8848;-59
2023/07/08 07:40:27;;;;;;;;;10.00;8.20;;;;;26.41;42.49;99940.56;5032605;28;8867;-59
2023/07/08 07:42:54;;;;;;;;;10.40;8.40;;;;;26.58;42.08;99947.16;5033277;28;8832;-60
2023/07/08 07:45:22;;;;;;;;;8.60;8.60;;;;;26.72;42.43;99944.06;5033031;28;8832;-61
2023/07/08 07:47:50;;;;;;;;;8.00;7.80;;;;;26.85;42.29;99941.22;5032952;28;8840;-60
2023/07/08 07:50:18;;;;;;;;;7.00;7.00;;;;;26.98;42.32;99945.69;5020568;28;8830;-62
2023/07/08 07:52:46;;;;;;;;;9.20;8.00;;;;;27.10;41.60;99936.50;5031403;28;8924;-59
2023/07/08 07:55:14;;;;;;;;;10.60;8.80;;;;;27.25;41.87;99941.63;5031827;28;8851;-62
2023/07/08 07:57:45;;;;;;;;;8.20;8.20;;;;;27.38;41.90;99934.09;5029662;28;9497;-61
2023/07/08 08:00:13;;;;;;;;;8.00;7.00;;;;;27.52;41.52;99929.25;5012573;28;8838;-59
2023/07/08 08:02:42;;;;;;;;;9.80;8.00;;;;;27.67;41.10;99938.75;5012327;28;8869;-62
2023/07/08 08:05:10;;;;;;;;;7.00;6.40;;;;;27.80;41.39;99938.59;5013270;28;8838;-59
2023/07/08 08:07:38;;;;;;;;;8.80;8.00;;;;;27.91;41.30;99951.47;5012841;28;8830;-59
2023/07/08 08:10:04;;;;;;;;;10.20;10.20;;;;;28.04;41.36;99934.88;5013729;28;8845;-62
2023/07/08 08:12:32;;;;;;;;;15.20;14.20;;;;;28.17;40.98;99945.63;5024261;28;8946;-61
2023/07/08 08:15:19;;;;;;;;;22.20;20.20;;;;;28.32;41.11;99940.53;5030950;28;8809;-60
2023/07/08 08:17:48;;;;;;;;;2.80;2.00;;;;;28.47;40.47;99943.66;5031404;28;8840;-61
2023/07/08 08:20:17;;;;;;;;;29.20;25.80;;;;;28.63;40.37;99945.69;5026214;28;8838;-59
2023/07/08 08:22:45;;;;;;;;;8.00;8.00;;;;;28.76;40.44;99945.44;5010645;28;8838;-61
2023/07/08 08:25:13;;;;;;;;;14.40;13.40;;;;;28.88;40.14;99957.25;5011020;28;8838;-61
2023/07/08 08:27:41;;;;;;;;;10.00;10.00;;;;;29.01;39.90;99954.31;5010761;28;8833;-62
2023/07/08 08:30:09;;;;;;;;;7.00;7.00;;;;;29.18;39.72;99949.72;5013248;28;8822;-58
2023/07/08 08:32:36;;;;;;;;;11.60;8.40;;;;;29.35;39.44;99950.63;5029371;28;8832;-58
2023/07/08 08:35:04;;;;;;;;;8.40;8.00;;;;;29.52;39.22;99959.84;5028946;28;8827;-58
2023/07/08 08:37:32;;;;;;;;;7.80;7.80;;;;;29.68;38.85;99955.47;5029620;28;8820;-59
2023/07/08 08:40:00;;;;;;;;;7.40;7.40;;;;;29.80;38.39;99953.53;5030667;28;8840;-60
2023/07/08 08:42:28;;;;;;;;;8.20;7.40;;;;;29.94;38.01;99963.13;5030191;28;9617;-59
2023/07/08 08:44:57;;;;;;;;;6.20;6.20;;;;;30.07;37.85;99954.56;5028322;28;8848;-59
2023/07/08 08:47:25;;;;;;;;;7.80;6.20;;;;;30.17;37.69;99955.59;5030492;28;8831;-59
2023/07/08 08:49:53;;;;;;;;;6.80;5.00;;;;;30.30;37.27;99955.28;5031573;28;8836;-59
2023/07/08 08:52:21;;;;;;;;;9.00;7.00;;;;;30.42;36.37;99953.28;5015662;28;8826;-58
2023/07/08 08:54:51;;;;;;;;;6.80;6.60;;;;;30.51;36.85;99948.22;5018512;28;8868;-60
2023/07/08 08:57:18;;;;;;;;;9.00;8.20;;;;;30.58;36.38;99948.88;5031547;28;8832;-59
2023/07/08 08:59:46;;;;;;;;;7.40;6.80;;;;;30.60;36.50;99955.81;5016747;28;8972;-59
2023/07/08 09:02:14;;;;;;;;;5.60;4.80;;;;;30.62;36.86;99947.31;5013046;28;8877;-59
2023/07/08 09:04:42;;;;;;;;;8.80;8.60;;;;;30.69;36.42;99957.06;5012338;28;8842;-61
2023/07/08 09:07:10;;;;;;;;;9.20;7.40;;;;;30.80;36.55;99962.47;5013521;28;8826;-60
2023/07/08 09:09:38;;;;;;;;;10.80;9.80;;;;;30.89;35.59;99960.97;5030173;28;8824;-59
2023/07/08 09:12:06;;;;;;;;;7.80;7.20;;;;;31.00;35.70;99956.44;5011731;28;9359;-61
2023/07/08 09:14:34;;;;;;;;;10.20;9.80;;;;;31.12;35.80;99946.97;5011228;28;8833;-60
2023/07/08 09:17:02;;;;;;;;;11.00;10.20;;;;;31.16;35.28;99958.34;5010798;28;8968;-60
2023/07/08 09:19:29;;;;;;;;;9.00;9.00;;;;;31.17;35.37;99949.00;5014909;28;8842;-59
2023/07/08 09:21:57;;;;;;;;;6.80;6.80;;;;;31.12;35.18;99946.97;5030435;28;8974;-59
2023/07/08 09:24:27;;;;;;;;;8.40;7.80;;;;;31.12;35.23;99948.91;5030764;28;8890;-58
2023/07/08 09:26:56;;;;;;;;;10.20;7.80;;;;;31.23;35.05;99951.59;5030476;28;8848;-60
2023/07/08 09:29:26;;;;;;;;;7.80;7.00;;;;;31.40;35.19;99951.50;5030965;28;8852;-60
2023/07/08 09:31:54;;;;;;;;;10.60;10.00;;;;;31.55;34.24;99951.69;5030661;28;8831;-59
2023/07/08 09:34:22;;;;;;;;;10.40;8.40;;;;;31.74;34.23;99947.53;5033088;28;8851;-59
2023/07/08 09:36:50;;;;;;;;;5.80;5.40;;;;;31.78;34.45;99959.72;5034396;28;8852;-59
2023/07/08 09:39:18;;;;;;;;;9.20;7.60;;;;;31.77;34.14;99958.03;5034233;28;8843;-60
2023/07/08 09:41:46;;;;;;;;;8.00;7.00;;;;;31.76;34.51;99964.66;5033613;28;8855;-60
2023/07/08 09:44:25;;;;;;;;;31.00;26.80;;;;;31.70;34.19;99958.25;5034219;28;9563;-60
2023/07/08 09:46:54;;;;;;;;;0.80;0.00;;;;;31.63;34.04;99962.28;5033849;28;8832;-60
2023/07/08 09:49:23;;;;;;;;;11.40;8.80;;;;;31.56;34.33;99961.66;5033775;28;8983;-59
2023/07/08 09:51:51;;;;;;;;;8.00;7.00;;;;;31.48;34.33;99960.16;5028037;28;8830;-59
2023/07/08 09:54:19;;;;;;;;;8.40;8.00;;;;;31.58;34.33;99953.94;5014130;28;8858;-60
2023/07/08 09:56:47;;;;;;;;;10.20;9.20;;;;;31.72;34.13;99960.75;5023121;28;9616;-60
2023/07/08 09:59:15;;;;;;;;;6.60;6.20;;;;;31.86;33.72;99948.25;5015466;28;8888;-60
2023/07/08 10:01:43;;;;;;;;;6.60;6.60;;;;;32.07;32.87;99958.38;5012072;28;8856;-61
2023/07/08 10:04:11;;;;;;;;;9.00;7.00;;;;;32.32;33.16;99967.75;5013209;28;8952;-59
2023/07/08 10:06:39;;;;;;;;;7.00;6.60;;;;;32.64;33.32;99959.47;5014795;28;9567;-61
2023/07/08 10:09:07;;;;;;;;;7.80;7.80;;;;;32.95;31.78;99966.88;5012784;28;8854;-60
2023/07/08 10:11:35;;;;;;;;;7.00;7.00;;;;;33.15;32.23;99959.56;5014193;28;8840;-60
2023/07/08 10:14:04;;;;;;;;;4.00;4.00;;;;;33.50;31.63;99962.53;5028014;28;8816;-61
2023/07/08 10:16:42;;;;;;;;;7.20;7.00;;;;;33.86;31.62;99961.59;5012453;28;8948;-62
2023/07/08 10:19:10;;;;;;;;;7.00;6.60;;;;;34.17;31.28;99949.47;5012516;28;8858;-59
2023/07/08 10:21:38;;;;;;;;;5.20;4.60;;;;;34.50;30.70;99957.25;5023908;28;8885;-59
2023/07/08 10:24:06;;;;;;;;;7.00;6.40;;;;;34.93;30.17;99953.09;5014695;28;8850;-60
2023/07/08 10:26:35;;;;;;;;;6.80;6.80;;;;;35.29;30.31;99951.94;5013561;28;8822;-60
2023/07/08 10:29:03;;;;;;;;;7.00;6.00;;;;;35.65;30.02;99956.22;5017177;28;8846;-60
2023/07/08 10:31:31;;;;;;;;;7.60;7.00;;;;;35.92;29.39;99948.34;5013562;28;8868;-60
2023/07/08 10:33:59;;;;;;;;;5.60;5.00;;;;;36.26;29.72;99948.13;5013740;28;8834;-60
2023/07/08 10:36:27;;;;;;;;;5.00;5.00;;;;;36.60;29.36;99950.91;5015400;28;8834;-60
2023/07/08 10:38:55;;;;;;;;;4.80;4.40;;;;;36.93;28.52;99952.84;5030812;28;8844;-61
2023/07/08 10:41:23;;;;;;;;;8.00;7.60;;;;;37.21;28.51;99947.28;5031913;28;8824;-59
2023/07/08 10:43:52;;;;;;;;;5.00;4.80;;;;;37.49;28.06;99951.94;5021028;28;8845;-60
2023/07/08 10:46:20;;;;;;;;;7.00;7.00;;;;;37.76;27.87;99952.16;5012579;28;8846;-60
2023/07/08 10:48:48;;;;;;;;;4.40;4.40;;;;;37.84;27.61;99956.25;5013478;28;8842;-60
2023/07/08 10:51:16;;;;;;;;;6.00;6.00;;;;;37.78;27.73;99952.66;5013380;28;8834;-61
2023/07/08 10:53:45;;;;;;;;;5.60;5.40;;;;;37.84;27.54;99942.31;5021650;28;8828;-60
2023/07/08 10:56:13;;;;;;;;;5.80;5.80;;;;;37.98;27.02;99943.25;5017059;28;8826;-60
2023/07/08 10:58:41;;;;;;;;;3.40;3.40;;;;;38.18;26.82;99940.16;5024289;28;8920;-60
2023/07/08 11:01:09;;;;;;;;;7.40;5.40;;;;;38.32;26.83;99933.53;5032740;28;8832;-60
2023/07/08 11:03:37;;;;;;;;;4.40;4.40;;;;;38.48;26.96;99932.19;5032469;28;8867;-61
2023/07/08 11:06:05;;;;;;;;;5.40;5.40;;;;;38.68;26.56;99937.38;5033405;28;8844;-60
2023/07/08 11:08:33;;;;;;;;;5.20;4.20;;;;;38.93;26.67;99934.19;5030329;28;8812;-60
2023/07/08 11:11:01;;;;;;;;;5.20;4.20;;;;;39.27;26.44;99929.06;5032457;28;8987;-60
2023/07/08 11:13:44;;;;;;;;;6.40;5.60;;;;;39.70;25.99;99926.78;5030838;28;8832;-60
2023/07/08 11:16:13;;;;;;;;;5.00;5.00;;;;;39.90;25.97;99915.16;5017608;28;8927;-59
2023/07/08 11:18:41;;;;;;;;;6.80;6.60;;;;;40.07;25.93;99918.09;5018573;28;8824;-60
2023/07/08 11:21:09;;;;;;;;;5.00;4.60;;;;;40.26;25.82;99916.81;5030095;28;8855;-60
2023/07/08 11:23:37;;;;;;;;;6.00;5.00;;;;;40.48;25.28;99914.00;5030378;28;9883;-60
2023/07/08 11:26:05;;;;;;;;;5.20;4.60;;;;;40.67;25.24;99916.63;5031584;28;8962;-60
2023/07/08 11:28:33;;;;;;;;;6.40;5.60;;;;;40.90;25.15;99915.44;5031198;28;9518;-60
2023/07/08 11:31:01;;;;;;;;;5.40;5.00;;;;;40.89;24.81;99905.41;5030701;28;8839;-60
2023/07/08 11:33:30;;;;;;;;;5.20;4.20;;;;;40.95;24.67;99907.75;5031486;28;8844;-60
2023/07/08 11:36:02;;;;;;;;;7.00;5.60;;;;;41.08;25.00;99912.44;5032110;28;8820;-60
2023/07/08 11:38:30;;;;;;;;;4.40;4.00;;;;;41.20;24.84;99903.44;5032017;28;8839;-59
2023/07/08 11:40:59;;;;;;;;;5.60;4.60;;;;;41.40;23.95;99906.47;5031655;28;8990;-60
2023/07/08 11:43:28;;;;;;;;;2.80;2.00;;;;;41.24;24.84;99899.66;5031872;28;8944;-60